Biddle, Montana
Current Conditions -  °F | °C
As of 4:53 AM on Sunday 25 Jan 2015 (Local Time) from KGCC Reporting Station
Broken Clouds Broken Clouds  
Wind Chill: 25°   Ceiling: 5000
Heat Index: 33°   Visibility: 10mi
Dew Point: 29°   Wind: 9mph
Humidity: 85%   Direction: 280°W
Pressure: 30.08"   Gusts: NA
Location:  45.1°N, 105.35°W
Report Text: KGCC 251153Z AUTO 28008KT 10SM BKN050 BKN085 01/M02 A3008 RMK AO2 SLP204 70003 T00061017 10011 21022 57006 TSNO
Loading
Personal Weather Stations






























Interactive Weather Map New forecast layout! Learn more

10-Day Weather Forecast

Advertisements
Track Severe Weather on mobile